Time;durP1;ratioP1;P1;durP2;ratioP2;P2;SDS_P1;SDS_P2;PMS_P1;PMS_P2;Temp;Humidity;BMP_temperature;BMP_pressure;BME280_temperature;BME280_humidity;BME280_pressure;Samples;Min_cycle;Max_cycle;Signal;HPM_P1;HPM_P2
2022/08/16 00:00:19;;;;;;;;;;;24.30;78.00;;;;;;5094885;28;19939;-62
2022/08/16 00:02:44;;;;;;;;;;;24.30;77.50;;;;;;5094754;28;19965;-62
2022/08/16 00:05:11;;;;;;;;;;;24.30;77.50;;;;;;5094466;28;19912;-62
2022/08/16 00:07:36;;;;;;;;;;;24.30;77.50;;;;;;5094757;28;19908;-63
2022/08/16 00:10:03;;;;;;;;;;;24.30;77.50;;;;;;5095057;28;20273;-62
2022/08/16 00:12:29;;;;;;;;;;;24.30;77.50;;;;;;5094765;28;20016;-62
2022/08/16 00:15:09;;;;;;;;;;;24.30;77.50;;;;;;5076385;28;19961;-62
2022/08/16 00:17:34;;;;;;;;;;;24.30;77.60;;;;;;5076474;28;19977;-62
2022/08/16 00:20:00;;;;;;;;;;;24.30;78.10;;;;;;5094652;28;19916;-62
2022/08/16 00:22:26;;;;;;;;;;;24.30;77.50;;;;;;5094557;28;19930;-62
2022/08/16 00:24:52;;;;;;;;;;;24.30;77.60;;;;;;5094147;28;20333;-62
2022/08/16 00:27:18;;;;;;;;;;;24.30;77.60;;;;;;5094246;28;20006;-63
2022/08/16 00:29:43;;;;;;;;;;;24.30;77.60;;;;;;5094457;28;19947;-62
2022/08/16 00:32:09;;;;;;;;;;;24.30;77.60;;;;;;5094154;28;19914;-62
2022/08/16 00:34:35;;;;;;;;;;;24.30;77.60;;;;;;5094032;28;20355;-62
2022/08/16 00:37:01;;;;;;;;;;;24.30;77.60;;;;;;5094084;28;19920;-62
2022/08/16 00:39:26;;;;;;;;;;;24.30;77.60;;;;;;5093992;28;19909;-62
2022/08/16 00:41:52;;;;;;;;;;;24.30;77.60;;;;;;5094325;28;19908;-62
2022/08/16 00:44:19;;;;;;;;;;;24.30;77.60;;;;;;5109969;28;20043;-62
2022/08/16 00:46:56;;;;;;;;;;;24.30;77.60;;;;;;5094255;28;20003;-62
2022/08/16 00:49:22;;;;;;;;;;;24.30;77.70;;;;;;5076154;28;20443;-62
2022/08/16 00:51:49;;;;;;;;;;;24.30;77.60;;;;;;5076108;28;19950;-62
2022/08/16 00:54:14;;;;;;;;;;;24.30;77.70;;;;;;5093847;28;19912;-62
2022/08/16 00:56:41;;;;;;;;;;;24.30;77.60;;;;;;5093847;28;19923;-63
2022/08/16 00:59:08;;;;;;;;;;;24.30;77.60;;;;;;5094454;28;19999;-62
2022/08/16 01:01:34;;;;;;;;;;;24.30;77.70;;;;;;5094106;28;19908;-62
2022/08/16 01:04:00;;;;;;;;;;;24.30;77.60;;;;;;5094548;28;19920;-62
2022/08/16 01:06:25;;;;;;;;;;;24.30;77.60;;;;;;5094366;28;19958;-62
2022/08/16 01:08:52;;;;;;;;;;;24.30;77.70;;;;;;5093709;28;19912;-63
2022/08/16 01:11:18;;;;;;;;;;;24.30;77.70;;;;;;5094404;28;19912;-62
2022/08/16 01:13:45;;;;;;;;;;;24.30;77.70;;;;;;5094203;28;19926;-62
2022/08/16 01:16:14;;;;;;;;;;;24.30;77.60;;;;;;5093667;28;20382;-62
2022/08/16 01:18:46;;;;;;;;;;;24.30;77.70;;;;;;5093927;28;19908;-62
2022/08/16 01:21:12;;;;;;;;;;;24.30;77.60;;;;;;5093685;28;19915;-62
2022/08/16 01:24:03;;;;;;;;;;;24.30;77.70;;;;;;5093892;28;19999;-62
2022/08/16 01:26:30;;;;;;;;;;;24.30;77.70;;;;;;5069886;28;19908;-62
2022/08/16 01:29:01;;;;;;;;;;;24.30;77.70;;;;;;5079303;28;19940;-62
2022/08/16 01:31:27;;;;;;;;;;;24.30;77.70;;;;;;5097826;28;19943;-62
2022/08/16 01:33:53;;;;;;;;;;;24.30;77.70;;;;;;5097653;28;20346;-62
2022/08/16 01:36:19;;;;;;;;;;;24.30;77.70;;;;;;5097959;28;19912;-62
2022/08/16 01:38:46;;;;;;;;;;;24.30;77.80;;;;;;5079413;28;19936;-62
2022/08/16 01:41:13;;;;;;;;;;;24.30;77.70;;;;;;5097564;28;20256;-62
2022/08/16 01:43:40;;;;;;;;;;;24.30;77.80;;;;;;5097518;28;19916;-62
2022/08/16 01:46:09;;;;;;;;;;;24.30;77.80;;;;;;5097462;28;19908;-62
2022/08/16 01:48:34;;;;;;;;;;;24.30;77.70;;;;;;5097367;28;19954;-62
2022/08/16 01:51:01;;;;;;;;;;;24.30;77.70;;;;;;5097107;28;19912;-62
2022/08/16 01:53:27;;;;;;;;;;;24.30;77.70;;;;;;5097192;28;19912;-62
2022/08/16 01:55:53;;;;;;;;;;;24.30;77.70;;;;;;5096983;28;19916;-62
2022/08/16 01:58:19;;;;;;;;;;;24.30;77.80;;;;;;5097576;28;19930;-62
2022/08/16 02:00:45;;;;;;;;;;;24.30;77.80;;;;;;5078964;28;19931;-62
2022/08/16 02:03:11;;;;;;;;;;;24.30;77.80;;;;;;5097012;28;20355;-62
2022/08/16 02:05:39;;;;;;;;;;;24.30;77.70;;;;;;5097115;28;19915;-62
2022/08/16 02:08:04;;;;;;;;;;;24.30;77.70;;;;;;5096740;28;20270;-62
2022/08/16 02:10:30;;;;;;;;;;;24.30;77.70;;;;;;5078858;28;19908;-62
2022/08/16 02:12:56;;;;;;;;;;;24.30;77.70;;;;;;5096969;28;19908;-62
2022/08/16 02:15:23;;;;;;;;;;;24.30;77.70;;;;;;5096863;28;19912;-62
2022/08/16 02:17:48;;;;;;;;;;;24.30;77.80;;;;;;5096561;28;19912;-62
2022/08/16 02:20:15;;;;;;;;;;;24.30;77.80;;;;;;5096539;28;20373;-62
2022/08/16 02:22:40;;;;;;;;;;;24.30;77.80;;;;;;5096467;28;20367;-62
2022/08/16 02:25:08;;;;;;;;;;;24.30;77.80;;;;;;5096388;28;19916;-62
2022/08/16 02:27:34;;;;;;;;;;;24.30;77.80;;;;;;5096418;28;19908;-62
2022/08/16 02:29:59;;;;;;;;;;;24.30;77.80;;;;;;5096599;28;20317;-62
2022/08/16 02:32:25;;;;;;;;;;;24.30;77.80;;;;;;5096233;28;19915;-62
2022/08/16 02:34:50;;;;;;;;;;;24.30;77.80;;;;;;5096165;28;19923;-62
2022/08/16 02:37:16;;;;;;;;;;;24.30;77.80;;;;;;5096384;28;20408;-62
2022/08/16 02:39:41;;;;;;;;;;;24.30;77.80;;;;;;5094915;28;19908;-62
2022/08/16 02:42:07;;;;;;;;;;;24.30;77.80;;;;;;5095986;28;19942;-62
2022/08/16 02:44:32;;;;;;;;;;;24.30;77.80;;;;;;5096035;28;20098;-62
2022/08/16 02:46:58;;;;;;;;;;;24.30;77.80;;;;;;5096261;28;19915;-62
2022/08/16 02:49:23;;;;;;;;;;;24.30;77.80;;;;;;5096269;28;19961;-62
2022/08/16 02:51:49;;;;;;;;;;;24.30;77.80;;;;;;5096027;28;20423;-62
2022/08/16 02:54:14;;;;;;;;;;;24.30;77.80;;;;;;5095815;28;19923;-62
2022/08/16 02:56:40;;;;;;;;;;;24.30;77.80;;;;;;5096074;28;19916;-62
2022/08/16 02:59:06;;;;;;;;;;;24.30;77.80;;;;;;5095665;28;19908;-62
2022/08/16 03:01:32;;;;;;;;;;;24.30;77.80;;;;;;5096026;28;19912;-62
2022/08/16 03:03:58;;;;;;;;;;;24.20;77.80;;;;;;5095545;28;19920;-62
2022/08/16 03:06:24;;;;;;;;;;;24.30;77.90;;;;;;5095816;28;19975;-62
2022/08/16 03:08:50;;;;;;;;;;;24.20;77.80;;;;;;5077628;28;20372;-62
2022/08/16 03:11:17;;;;;;;;;;;24.30;77.80;;;;;;5094936;28;21532;-62
2022/08/16 03:13:51;;;;;;;;;;;24.20;77.80;;;;;;5095229;28;19959;-62
2022/08/16 03:16:17;;;;;;;;;;;24.30;77.90;;;;;;5095548;28;19919;-62
2022/08/16 03:18:43;;;;;;;;;;;24.20;77.80;;;;;;5095580;28;19948;-62
2022/08/16 03:21:08;;;;;;;;;;;24.20;77.80;;;;;;5095476;28;19923;-62
2022/08/16 03:23:34;;;;;;;;;;;24.30;77.90;;;;;;5095188;28;20002;-62
2022/08/16 03:25:59;;;;;;;;;;;24.30;77.90;;;;;;5095354;28;19914;-62
2022/08/16 03:28:25;;;;;;;;;;;24.20;77.90;;;;;;5095223;28;19908;-62
2022/08/16 03:30:50;;;;;;;;;;;24.20;77.90;;;;;;5095322;28;19912;-62
2022/08/16 03:33:16;;;;;;;;;;;24.20;77.90;;;;;;5095099;28;19953;-62
2022/08/16 03:35:41;;;;;;;;;;;24.20;77.90;;;;;;5077027;28;19935;-62
2022/08/16 03:38:08;;;;;;;;;;;24.20;77.90;;;;;;5094889;28;19908;-62
2022/08/16 03:40:34;;;;;;;;;;;24.20;77.90;;;;;;5095021;28;19908;-62
2022/08/16 03:43:04;;;;;;;;;;;24.20;77.90;;;;;;5094613;28;19909;-62
2022/08/16 03:45:30;;;;;;;;;;;24.20;77.90;;;;;;5076886;28;19908;-62
2022/08/16 03:47:55;;;;;;;;;;;24.20;77.90;;;;;;5094870;28;19915;-62
2022/08/16 03:50:21;;;;;;;;;;;24.20;77.90;;;;;;5094892;28;19969;-62
2022/08/16 03:52:47;;;;;;;;;;;24.20;77.90;;;;;;5094432;28;19943;-62
2022/08/16 03:55:12;;;;;;;;;;;24.20;77.90;;;;;;5094665;28;19966;-62
2022/08/16 03:57:38;;;;;;;;;;;24.20;77.90;;;;;;5094879;28;19963;-62
2022/08/16 04:00:12;;;;;;;;;;;24.20;78.00;;;;;;5076679;28;20301;-62
2022/08/16 04:02:37;;;;;;;;;;;24.20;77.90;;;;;;5094937;28;19926;-62
2022/08/16 04:05:04;;;;;;;;;;;24.20;78.00;;;;;;5094331;28;19991;-62
2022/08/16 04:07:30;;;;;;;;;;;24.20;78.00;;;;;;5094993;28;19954;-62
2022/08/16 04:09:56;;;;;;;;;;;24.20;78.00;;;;;;5094301;28;19912;-62
2022/08/16 04:12:21;;;;;;;;;;;24.10;77.90;;;;;;5094625;28;19908;-62
2022/08/16 04:14:48;;;;;;;;;;;24.20;78.10;;;;;;5094040;28;20011;-62
2022/08/16 04:17:14;;;;;;;;;;;24.20;78.10;;;;;;5094469;28;19919;-62
2022/08/16 04:19:40;;;;;;;;;;;24.20;78.10;;;;;;5094092;28;20382;-62
2022/08/16 04:22:06;;;;;;;;;;;24.20;78.10;;;;;;5094672;28;19909;-62
2022/08/16 04:24:31;;;;;;;;;;;24.20;78.10;;;;;;5094260;28;19912;-62
2022/08/16 04:26:57;;;;;;;;;;;24.20;78.10;;;;;;5093964;28;19908;-62
2022/08/16 04:29:22;;;;;;;;;;;24.10;78.00;;;;;;5094162;28;19908;-62
2022/08/16 04:31:48;;;;;;;;;;;24.20;78.10;;;;;;5094260;28;20238;-62
2022/08/16 04:34:14;;;;;;;;;;;24.20;78.60;;;;;;5093923;28;19912;-62
2022/08/16 04:36:39;;;;;;;;;;;24.20;78.10;;;;;;5094112;28;19916;-62
2022/08/16 04:39:05;;;;;;;;;;;24.20;78.10;;;;;;5093755;28;19908;-62
2022/08/16 04:41:31;;;;;;;;;;;24.20;78.10;;;;;;5093741;28;20264;-62
2022/08/16 04:43:57;;;;;;;;;;;24.10;78.10;;;;;;5075948;28;19953;-62
2022/08/16 04:46:22;;;;;;;;;;;24.10;78.10;;;;;;5094266;28;19970;-62
2022/08/16 04:48:48;;;;;;;;;;;24.10;78.10;;;;;;5093918;28;19908;-62
2022/08/16 04:51:13;;;;;;;;;;;24.10;78.20;;;;;;5094325;28;19908;-62
2022/08/16 04:53:39;;;;;;;;;;;24.10;78.10;;;;;;5093874;28;20002;-62
2022/08/16 04:56:04;;;;;;;;;;;24.10;78.10;;;;;;5093939;28;19919;-61
2022/08/16 04:58:32;;;;;;;;;;;24.10;78.10;;;;;;5093763;28;19978;-62
2022/08/16 05:00:58;;;;;;;;;;;24.10;78.10;;;;;;5075777;28;20045;-62
2022/08/16 05:03:23;;;;;;;;;;;24.20;78.10;;;;;;5096846;28;19963;-62
2022/08/16 05:05:49;;;;;;;;;;;24.20;78.10;;;;;;5098063;28;19909;-62
2022/08/16 05:08:14;;;;;;;;;;;24.20;78.10;;;;;;5098257;28;19942;-62
2022/08/16 05:10:40;;;;;;;;;;;24.20;78.20;;;;;;5097722;28;20003;-62
2022/08/16 05:13:05;;;;;;;;;;;24.10;78.10;;;;;;5097800;28;20350;-62
2022/08/16 05:15:31;;;;;;;;;;;24.10;78.10;;;;;;5097515;28;20289;-62
2022/08/16 05:17:56;;;;;;;;;;;24.10;78.20;;;;;;5097525;28;20301;-62
2022/08/16 05:20:22;;;;;;;;;;;24.10;78.10;;;;;;5097667;28;19945;-62
2022/08/16 05:22:48;;;;;;;;;;;24.10;78.20;;;;;;5079368;28;19962;-62
2022/08/16 05:25:14;;;;;;;;;;;24.10;78.20;;;;;;5079226;28;19954;-62
2022/08/16 05:27:41;;;;;;;;;;;24.10;78.20;;;;;;5097038;28;20377;-62
2022/08/16 05:30:07;;;;;;;;;;;24.10;78.20;;;;;;5097452;28;19914;-62
2022/08/16 05:32:33;;;;;;;;;;;24.10;78.20;;;;;;5097044;28;19919;-62
2022/08/16 05:34:59;;;;;;;;;;;24.10;78.20;;;;;;5097077;28;19912;-62
2022/08/16 05:37:24;;;;;;;;;;;24.20;78.20;;;;;;5096944;28;19919;-62
2022/08/16 05:39:50;;;;;;;;;;;24.10;78.20;;;;;;5097141;28;20057;-62
2022/08/16 05:42:16;;;;;;;;;;;24.10;78.30;;;;;;5096913;28;19952;-62
2022/08/16 05:44:41;;;;;;;;;;;24.10;78.20;;;;;;5096825;28;20003;-62
2022/08/16 05:47:07;;;;;;;;;;;24.10;78.20;;;;;;5097292;28;19908;-62
2022/08/16 05:49:32;;;;;;;;;;;24.10;78.20;;;;;;5096733;28;19908;-62
2022/08/16 05:51:58;;;;;;;;;;;24.10;78.20;;;;;;5097194;28;20339;-62
2022/08/16 05:54:25;;;;;;;;;;;24.10;78.20;;;;;;5078797;28;20003;-62
2022/08/16 05:56:50;;;;;;;;;;;24.10;78.20;;;;;;5096524;28;19919;-62
2022/08/16 05:59:17;;;;;;;;;;;24.10;78.30;;;;;;5096788;28;19912;-63
2022/08/16 06:01:43;;;;;;;;;;;24.10;78.30;;;;;;5096743;28;19912;-62
2022/08/16 06:04:10;;;;;;;;;;;24.10;78.30;;;;;;5096810;28;19982;-62
2022/08/16 06:06:35;;;;;;;;;;;24.10;78.30;;;;;;5096866;28;19909;-62
2022/08/16 06:09:01;;;;;;;;;;;24.10;78.30;;;;;;5096779;28;19918;-62
2022/08/16 06:11:26;;;;;;;;;;;24.10;78.30;;;;;;5078670;28;19931;-62
2022/08/16 06:13:52;;;;;;;;;;;24.10;78.30;;;;;;5096173;28;19973;-62
2022/08/16 06:16:17;;;;;;;;;;;24.10;78.30;;;;;;5078358;28;19999;-62
2022/08/16 06:18:43;;;;;;;;;;;24.10;78.30;;;;;;5096438;28;19913;-62
2022/08/16 06:21:10;;;;;;;;;;;24.10;78.30;;;;;;5096500;28;19908;-62
2022/08/16 06:23:35;;;;;;;;;;;24.10;78.30;;;;;;5096077;28;19936;-62
2022/08/16 06:26:01;;;;;;;;;;;24.20;78.40;;;;;;5096010;28;19919;-62
2022/08/16 06:28:27;;;;;;;;;;;24.20;78.40;;;;;;5078481;28;19908;-62
2022/08/16 06:30:52;;;;;;;;;;;24.20;78.30;;;;;;5095997;28;19908;-62
2022/08/16 06:33:18;;;;;;;;;;;24.20;78.30;;;;;;5096118;28;19908;-62
2022/08/16 06:35:45;;;;;;;;;;;24.20;78.30;;;;;;5077615;28;19961;-62
2022/08/16 06:38:10;;;;;;;;;;;24.20;78.30;;;;;;5077732;28;20035;-62
2022/08/16 06:40:36;;;;;;;;;;;24.20;78.30;;;;;;5077587;28;20003;-62
2022/08/16 06:43:01;;;;;;;;;;;24.20;78.30;;;;;;5095596;28;19980;-62
2022/08/16 06:45:27;;;;;;;;;;;24.20;78.30;;;;;;5095693;28;19908;-62
2022/08/16 06:47:53;;;;;;;;;;;24.20;78.30;;;;;;5095958;28;19909;-62
2022/08/16 06:50:18;;;;;;;;;;;24.20;78.30;;;;;;5095296;28;20297;-62
2022/08/16 06:52:44;;;;;;;;;;;24.20;78.30;;;;;;5095721;28;19962;-62
2022/08/16 06:55:11;;;;;;;;;;;24.20;78.20;;;;;;5095257;28;20007;-62
2022/08/16 06:57:37;;;;;;;;;;;24.20;78.20;;;;;;5077378;28;20410;-62
2022/08/16 07:00:10;;;;;;;;;;;24.20;78.20;;;;;;5095761;28;19909;-62
2022/08/16 07:02:36;;;;;;;;;;;24.20;78.20;;;;;;5077278;28;19964;-62
2022/08/16 07:05:02;;;;;;;;;;;24.30;78.20;;;;;;5095284;28;19915;-62
2022/08/16 07:07:27;;;;;;;;;;;24.20;78.10;;;;;;5095844;28;19908;-62
2022/08/16 07:09:53;;;;;;;;;;;24.30;78.20;;;;;;5077053;28;19916;-62
2022/08/16 07:12:19;;;;;;;;;;;24.30;78.20;;;;;;5095432;28;19908;-62
2022/08/16 07:14:46;;;;;;;;;;;24.30;78.20;;;;;;5095293;28;20014;-62
2022/08/16 07:17:12;;;;;;;;;;;24.30;78.20;;;;;;5095371;28;19912;-62
2022/08/16 07:19:39;;;;;;;;;;;24.30;78.20;;;;;;5095608;28;19908;-62
2022/08/16 07:22:04;;;;;;;;;;;24.30;78.10;;;;;;5095236;28;19965;-62
2022/08/16 07:24:30;;;;;;;;;;;24.30;78.20;;;;;;5094446;28;19908;-62
2022/08/16 07:26:56;;;;;;;;;;;24.30;78.10;;;;;;5095010;28;19909;-62
2022/08/16 07:29:21;;;;;;;;;;;24.30;78.20;;;;;;5094648;28;20002;-62
2022/08/16 07:31:47;;;;;;;;;;;24.30;78.10;;;;;;5077007;28;20014;-62
2022/08/16 07:34:12;;;;;;;;;;;24.30;78.10;;;;;;5094871;28;19912;-62
2022/08/16 07:36:38;;;;;;;;;;;24.30;78.20;;;;;;5094977;28;20405;-62
2022/08/16 07:39:04;;;;;;;;;;;24.30;78.10;;;;;;5094426;28;19999;-62
2022/08/16 07:41:29;;;;;;;;;;;24.30;78.60;;;;;;5094512;28;19912;-62
2022/08/16 07:43:55;;;;;;;;;;;24.30;78.10;;;;;;5076792;28;19962;-62
2022/08/16 07:46:20;;;;;;;;;;;24.30;78.10;;;;;;5095152;28;20354;-62
2022/08/16 07:48:46;;;;;;;;;;;24.30;78.20;;;;;;5076448;28;19908;-62
2022/08/16 07:51:11;;;;;;;;;;;24.30;78.10;;;;;;5094747;28;20310;-62
2022/08/16 07:53:37;;;;;;;;;;;24.30;78.20;;;;;;5094365;28;19919;-62
2022/08/16 07:56:03;;;;;;;;;;;24.30;78.20;;;;;;5076239;28;19952;-62
2022/08/16 07:58:28;;;;;;;;;;;24.30;78.10;;;;;;5076320;28;19908;-62
2022/08/16 08:00:54;;;;;;;;;;;24.30;78.20;;;;;;5094649;28;19915;-62
2022/08/16 08:03:21;;;;;;;;;;;24.30;78.10;;;;;;5072940;28;19970;-62
2022/08/16 08:05:46;;;;;;;;;;;24.30;78.20;;;;;;5074099;28;19909;-62
2022/08/16 08:08:12;;;;;;;;;;;24.30;78.20;;;;;;5073806;28;20270;-62
2022/08/16 08:10:37;;;;;;;;;;;24.30;78.10;;;;;;5073792;28;19908;-62
2022/08/16 08:13:03;;;;;;;;;;;24.30;78.20;;;;;;5073972;28;19915;-62
2022/08/16 08:15:29;;;;;;;;;;;24.30;78.20;;;;;;5073497;28;19981;-62
2022/08/16 08:17:55;;;;;;;;;;;24.30;78.20;;;;;;5073941;28;19920;-62
2022/08/16 08:20:25;;;;;;;;;;;24.30;78.20;;;;;;5074022;28;20085;-62
2022/08/16 08:22:51;;;;;;;;;;;24.30;78.20;;;;;;5072693;28;19983;-62
2022/08/16 08:25:17;;;;;;;;;;;24.30;78.20;;;;;;5073610;28;19915;-62
2022/08/16 08:27:42;;;;;;;;;;;24.30;78.20;;;;;;5074199;28;20316;-62
2022/08/16 08:30:09;;;;;;;;;;;24.30;78.20;;;;;;5073716;28;19915;-62
2022/08/16 08:32:34;;;;;;;;;;;24.30;78.20;;;;;;5073734;28;19909;-62
2022/08/16 08:35:01;;;;;;;;;;;24.30;78.20;;;;;;5073452;28;19962;-62
2022/08/16 08:37:26;;;;;;;;;;;24.30;78.20;;;;;;5073798;28;19966;-62
2022/08/16 08:39:52;;;;;;;;;;;24.30;78.20;;;;;;5073482;28;19913;-62
2022/08/16 08:42:17;;;;;;;;;;;24.30;78.20;;;;;;5073602;28;19909;-62
2022/08/16 08:44:43;;;;;;;;;;;24.30;78.20;;;;;;5073800;28;19908;-62
2022/08/16 08:47:08;;;;;;;;;;;24.30;78.20;;;;;;5073487;28;19908;-62
2022/08/16 08:49:35;;;;;;;;;;;24.30;78.30;;;;;;5072428;28;19932;-62
2022/08/16 08:52:01;;;;;;;;;;;24.30;78.30;;;;;;5073749;28;19917;-62
2022/08/16 08:54:27;;;;;;;;;;;24.30;78.20;;;;;;5072280;28;19920;-62
2022/08/16 08:56:52;;;;;;;;;;;24.30;78.30;;;;;;5073493;28;19995;-62
2022/08/16 08:59:18;;;;;;;;;;;24.30;78.80;;;;;;5072053;28;19909;-62
2022/08/16 09:01:45;;;;;;;;;;;24.30;78.20;;;;;;5073625;28;20011;-62
2022/08/16 09:04:10;;;;;;;;;;;24.30;78.30;;;;;;5093168;28;19920;-62
2022/08/16 09:06:36;;;;;;;;;;;24.30;78.30;;;;;;5093726;28;19914;-62
2022/08/16 09:09:03;;;;;;;;;;;24.30;78.30;;;;;;5093455;28;19973;-62
2022/08/16 09:11:28;;;;;;;;;;;24.30;78.30;;;;;;5093727;28;19912;-62
2022/08/16 09:13:54;;;;;;;;;;;24.30;78.30;;;;;;5075328;28;19912;-63
2022/08/16 09:16:19;;;;;;;;;;;24.30;78.30;;;;;;5093486;28;19983;-62
2022/08/16 09:18:45;;;;;;;;;;;24.30;78.30;;;;;;5093317;28;20278;-62
2022/08/16 09:21:11;;;;;;;;;;;24.30;78.40;;;;;;5093504;28;19957;-62
2022/08/16 09:23:37;;;;;;;;;;;24.30;78.30;;;;;;5093587;28;20379;-61
2022/08/16 09:26:04;;;;;;;;;;;24.30;78.30;;;;;;5093238;28;20271;-61
2022/08/16 09:28:30;;;;;;;;;;;24.30;78.40;;;;;;5093522;28;19908;-62
2022/08/16 09:30:55;;;;;;;;;;;24.30;78.30;;;;;;5093154;28;19915;-62
2022/08/16 09:33:21;;;;;;;;;;;24.30;78.30;;;;;;5093151;28;19959;-62
2022/08/16 09:35:47;;;;;;;;;;;24.30;78.40;;;;;;5093501;28;19918;-62
2022/08/16 09:38:13;;;;;;;;;;;24.30;78.30;;;;;;5075250;28;19927;-62
2022/08/16 09:40:40;;;;;;;;;;;24.30;78.40;;;;;;5093079;28;19912;-61
2022/08/16 09:43:05;;;;;;;;;;;24.30;78.40;;;;;;5093288;28;19908;-61
2022/08/16 09:45:37;;;;;;;;;;;24.30;78.40;;;;;;5092945;28;19919;-62
2022/08/16 09:48:07;;;;;;;;;;;24.30;78.40;;;;;;5093816;28;19916;-61
2022/08/16 09:50:34;;;;;;;;;;;24.30;78.40;;;;;;5078955;28;19913;-62
2022/08/16 09:53:00;;;;;;;;;;;24.30;78.30;;;;;;5097035;28;19908;-62
2022/08/16 09:55:25;;;;;;;;;;;24.30;78.40;;;;;;5096489;28;19967;-61
2022/08/16 09:57:51;;;;;;;;;;;24.30;78.40;;;;;;5096725;28;20259;-62
2022/08/16 10:00:16;;;;;;;;;;;24.30;78.40;;;;;;5096217;28;19908;-62
2022/08/16 10:02:43;;;;;;;;;;;24.30;78.40;;;;;;5096513;28;20371;-61
2022/08/16 10:05:10;;;;;;;;;;;24.30;78.40;;;;;;5078531;28;19915;-61
2022/08/16 10:07:35;;;;;;;;;;;24.30;78.40;;;;;;5078476;28;20323;-61
2022/08/16 10:10:01;;;;;;;;;;;24.30;78.40;;;;;;5096253;28;19912;-61
2022/08/16 10:15:13;;;;;;;;;;;24.30;78.40;;;;;;5096136;28;20012;-62
2022/08/16 10:17:41;;;;;;;;;;;24.30;78.40;;;;;;5078022;28;19935;-63
2022/08/16 10:20:10;;;;;;;;;;;24.30;78.40;;;;;;5078317;28;19913;-63
2022/08/16 10:22:35;;;;;;;;;;;24.30;78.50;;;;;;5096695;28;19936;-62
2022/08/16 10:25:01;;;;;;;;;;;24.30;78.50;;;;;;5112625;28;20042;-62
2022/08/16 10:27:27;;;;;;;;;;;24.30;78.50;;;;;;5078240;28;19908;-63
2022/08/16 10:29:53;;;;;;;;;;;24.30;78.40;;;;;;5096144;28;19931;-63
2022/08/16 10:32:19;;;;;;;;;;;24.30;78.50;;;;;;5096022;28;19915;-63
2022/08/16 10:34:45;;;;;;;;;;;24.30;78.50;;;;;;5096217;28;19916;-63
2022/08/16 10:37:11;;;;;;;;;;;24.30;78.50;;;;;;5096588;28;19923;-62
2022/08/16 10:39:38;;;;;;;;;;;24.30;78.50;;;;;;5096295;28;20010;-63
2022/08/16 10:42:04;;;;;;;;;;;24.30;78.50;;;;;;5096227;28;19931;-62
2022/08/16 10:44:30;;;;;;;;;;;24.30;78.50;;;;;;5095930;28;19909;-62
2022/08/16 10:46:55;;;;;;;;;;;24.30;78.50;;;;;;5095548;28;20359;-62
2022/08/16 10:49:21;;;;;;;;;;;24.30;78.50;;;;;;5096260;28;19912;-61
2022/08/16 10:51:46;;;;;;;;;;;24.30;78.50;;;;;;5095597;28;19908;-61
2022/08/16 10:54:12;;;;;;;;;;;24.30;78.50;;;;;;5095663;28;19916;-61
2022/08/16 10:56:37;;;;;;;;;;;24.30;78.50;;;;;;5095781;28;19935;-61
2022/08/16 10:59:03;;;;;;;;;;;24.30;78.50;;;;;;5077217;28;19990;-61
2022/08/16 11:01:28;;;;;;;;;;;24.30;78.50;;;;;;5095219;28;20253;-62
2022/08/16 11:03:54;;;;;;;;;;;24.30;78.50;;;;;;5095765;28;20020;-62
2022/08/16 11:06:20;;;;;;;;;;;24.30;78.50;;;;;;5095305;28;19908;-62
2022/08/16 11:08:45;;;;;;;;;;;24.30;78.50;;;;;;5095171;28;20359;-62
2022/08/16 11:11:13;;;;;;;;;;;24.30;78.50;;;;;;5095230;28;19912;-62
2022/08/16 11:13:39;;;;;;;;;;;24.30;78.40;;;;;;5095299;28;19908;-61
2022/08/16 11:16:05;;;;;;;;;;;24.30;78.40;;;;;;5095314;28;19918;-61
2022/08/16 11:18:30;;;;;;;;;;;24.30;78.50;;;;;;5077191;28;19908;-62
2022/08/16 11:20:57;;;;;;;;;;;24.30;78.40;;;;;;5076957;28;19908;-62
2022/08/16 11:23:23;;;;;;;;;;;24.30;78.50;;;;;;5095008;28;19954;-62
2022/08/16 11:25:48;;;;;;;;;;;24.30;78.40;;;;;;5095023;28;20347;-62
2022/08/16 11:28:13;;;;;;;;;;;24.30;78.50;;;;;;5076894;28;19915;-62
2022/08/16 11:30:40;;;;;;;;;;;24.30;78.40;;;;;;5094787;28;19915;-62
2022/08/16 11:33:06;;;;;;;;;;;24.30;78.40;;;;;;5076914;28;19915;-62
2022/08/16 11:35:32;;;;;;;;;;;24.30;78.40;;;;;;5094369;28;19916;-63
2022/08/16 11:38:00;;;;;;;;;;;24.30;78.40;;;;;;5094470;28;19912;-63
2022/08/16 11:40:26;;;;;;;;;;;24.30;78.40;;;;;;5094820;28;20366;-63
2022/08/16 11:42:52;;;;;;;;;;;24.30;78.40;;;;;;5076647;28;19909;-63
2022/08/16 11:45:17;;;;;;;;;;;24.30;78.40;;;;;;5076506;28;19915;-63
2022/08/16 11:47:43;;;;;;;;;;;24.30;78.50;;;;;;5094391;28;20286;-63
2022/08/16 11:50:08;;;;;;;;;;;24.30;78.50;;;;;;5094731;28;19919;-63
2022/08/16 11:52:34;;;;;;;;;;;24.30;78.50;;;;;;5094265;28;19915;-63
2022/08/16 11:55:00;;;;;;;;;;;24.30;78.40;;;;;;5094583;28;19912;-63
2022/08/16 11:57:26;;;;;;;;;;;24.30;78.50;;;;;;5094600;28;19912;-62
2022/08/16 11:59:51;;;;;;;;;;;24.30;78.40;;;;;;5094822;28;19954;-63
2022/08/16 12:02:16;;;;;;;;;;;24.30;78.40;;;;;;5094387;28;19919;-62
2022/08/16 12:04:43;;;;;;;;;;;24.30;78.50;;;;;;5094212;28;19908;-63
2022/08/16 12:07:09;;;;;;;;;;;24.30;78.50;;;;;;5094558;28;20351;-63
2022/08/16 12:09:35;;;;;;;;;;;24.30;78.40;;;;;;5076001;28;19927;-63
2022/08/16 12:12:01;;;;;;;;;;;24.30;78.40;;;;;;5094132;28;20176;-63
2022/08/16 12:14:26;;;;;;;;;;;24.30;78.40;;;;;;5094042;28;19912;-63
2022/08/16 12:16:54;;;;;;;;;;;24.30;78.40;;;;;;5093549;28;19999;-63
2022/08/16 12:19:20;;;;;;;;;;;24.30;78.40;;;;;;5094223;28;19919;-63
2022/08/16 12:21:46;;;;;;;;;;;24.30;78.50;;;;;;5094311;28;19909;-63
2022/08/16 12:24:12;;;;;;;;;;;24.30;78.40;;;;;;5094275;28;20239;-63
2022/08/16 12:26:37;;;;;;;;;;;24.30;78.50;;;;;;5094250;28;19909;-63
2022/08/16 12:29:03;;;;;;;;;;;24.30;78.50;;;;;;5094105;28;19994;-63
2022/08/16 12:31:28;;;;;;;;;;;24.30;78.50;;;;;;5094295;28;19912;-63
2022/08/16 12:33:54;;;;;;;;;;;24.30;78.40;;;;;;5094235;28;20354;-63
2022/08/16 12:36:19;;;;;;;;;;;24.30;78.40;;;;;;5094034;28;19913;-63
2022/08/16 12:38:45;;;;;;;;;;;24.30;78.40;;;;;;5075817;28;20404;-62
2022/08/16 12:41:12;;;;;;;;;;;24.30;78.40;;;;;;5094027;28;19912;-63
2022/08/16 12:43:40;;;;;;;;;;;24.30;78.40;;;;;;5093703;28;19915;-63
2022/08/16 12:46:06;;;;;;;;;;;24.30;78.50;;;;;;5093994;28;19908;-63
2022/08/16 12:51:17;;;;;;;;;;;24.30;78.50;;;;;;5093707;28;19915;-63
2022/08/16 12:53:43;;;;;;;;;;;24.30;78.40;;;;;;5093864;28;19908;-63
2022/08/16 12:56:10;;;;;;;;;;;24.30;78.40;;;;;;5093493;28;19958;-62
2022/08/16 12:58:36;;;;;;;;;;;24.30;78.40;;;;;;5075670;28;19908;-63
2022/08/16 13:01:03;;;;;;;;;;;24.30;78.40;;;;;;5093771;28;20302;-63
2022/08/16 13:03:28;;;;;;;;;;;24.30;78.40;;;;;;5094046;28;19920;-63
2022/08/16 13:05:54;;;;;;;;;;;24.30;78.40;;;;;;5075707;28;19909;-63
2022/08/16 13:08:20;;;;;;;;;;;24.30;78.40;;;;;;5093738;28;20346;-63
2022/08/16 13:10:47;;;;;;;;;;;24.40;78.50;;;;;;5075435;28;20300;-62
2022/08/16 13:13:15;;;;;;;;;;;24.30;78.40;;;;;;5093743;28;19916;-63
2022/08/16 13:15:41;;;;;;;;;;;24.30;78.40;;;;;;5093425;28;19930;-63
2022/08/16 13:18:07;;;;;;;;;;;24.30;78.30;;;;;;5093709;28;19912;-62
2022/08/16 13:20:32;;;;;;;;;;;24.40;79.00;;;;;;5075335;28;19912;-63
2022/08/16 13:23:05;;;;;;;;;;;24.30;78.40;;;;;;5094057;28;19963;-63
2022/08/16 13:25:32;;;;;;;;;;;24.30;78.40;;;;;;5079413;28;19912;-63
2022/08/16 13:27:58;;;;;;;;;;;24.30;78.40;;;;;;5096977;28;20346;-63
2022/08/16 13:30:24;;;;;;;;;;;24.30;78.40;;;;;;5097392;28;19908;-63
2022/08/16 13:32:51;;;;;;;;;;;24.30;78.40;;;;;;5097083;28;19943;-63
2022/08/16 13:35:16;;;;;;;;;;;24.30;78.40;;;;;;5097281;28;19912;-63
2022/08/16 13:37:42;;;;;;;;;;;24.30;78.40;;;;;;5097349;28;20383;-63
2022/08/16 13:40:08;;;;;;;;;;;24.40;78.40;;;;;;5096986;28;19908;-63
2022/08/16 13:42:33;;;;;;;;;;;24.30;78.30;;;;;;5097585;28;19908;-63
2022/08/16 13:44:59;;;;;;;;;;;24.30;78.30;;;;;;5097094;28;19970;-63
2022/08/16 13:47:25;;;;;;;;;;;24.40;78.40;;;;;;5096704;28;20334;-63
2022/08/16 13:49:50;;;;;;;;;;;24.40;78.40;;;;;;5097093;28;20350;-63
2022/08/16 13:52:17;;;;;;;;;;;24.30;78.30;;;;;;5096849;28;19944;-63
2022/08/16 13:54:42;;;;;;;;;;;24.30;78.40;;;;;;5096652;28;20362;-63
2022/08/16 13:57:08;;;;;;;;;;;24.40;78.40;;;;;;5096644;28;19920;-63
2022/08/16 13:59:34;;;;;;;;;;;24.30;78.30;;;;;;5078846;28;19915;-64
2022/08/16 14:02:01;;;;;;;;;;;24.40;78.40;;;;;;5096496;28;19908;-63
2022/08/16 14:04:28;;;;;;;;;;;24.40;78.50;;;;;;5078634;28;20350;-63
2022/08/16 14:06:57;;;;;;;;;;;24.40;78.40;;;;;;5096691;28;19996;-61
2022/08/16 14:09:22;;;;;;;;;;;24.30;78.40;;;;;;5096169;28;19942;-61
2022/08/16 14:11:49;;;;;;;;;;;24.40;78.40;;;;;;5096643;28;19908;-62
2022/08/16 14:14:15;;;;;;;;;;;24.40;78.40;;;;;;5096469;28;19963;-62